sensor_id;sensor_type;location;lat;lon;timestamp;temperature;humidity
16243;DHT22;11719;51.052;6.982;2023-11-21T00:00:19;14.10;99.90
16243;DHT22;11719;51.052;6.982;2023-11-21T00:02:46;14.10;99.90
16243;DHT22;11719;51.052;6.982;2023-11-21T00:05:12;14.00;99.90
16243;DHT22;11719;51.052;6.982;2023-11-21T00:07:42;13.90;99.90
16243;DHT22;11719;51.052;6.982;2023-11-21T00:10:10;13.80;99.90
16243;DHT22;11719;51.052;6.982;2023-11-21T00:12:37;13.90;99.90
16243;DHT22;11719;51.052;6.982;2023-11-21T00:15:04;13.80;99.90
16243;DHT22;11719;51.052;6.982;2023-11-21T00:17:37;13.80;99.90
16243;DHT22;11719;51.052;6.982;2023-11-21T00:20:05;13.80;99.90
16243;DHT22;11719;51.052;6.982;2023-11-21T00:22:33;13.80;99.90
16243;DHT22;11719;51.052;6.982;2023-11-21T00:24:59;13.90;99.90
16243;DHT22;11719;51.052;6.982;2023-11-21T00:27:25;13.90;99.90
16243;DHT22;11719;51.052;6.982;2023-11-21T00:29:51;13.70;99.90
16243;DHT22;11719;51.052;6.982;2023-11-21T00:32:17;13.70;99.90
16243;DHT22;11719;51.052;6.982;2023-11-21T00:34:43;13.60;99.90
16243;DHT22;11719;51.052;6.982;2023-11-21T00:37:09;13.60;99.90
16243;DHT22;11719;51.052;6.982;2023-11-21T00:39:35;13.60;99.90
16243;DHT22;11719;51.052;6.982;2023-11-21T00:42:01;13.70;99.90
16243;DHT22;11719;51.052;6.982;2023-11-21T00:44:26;13.80;99.90
16243;DHT22;11719;51.052;6.982;2023-11-21T00:46:52;13.70;99.90
16243;DHT22;11719;51.052;6.982;2023-11-21T00:49:18;13.70;99.90
16243;DHT22;11719;51.052;6.982;2023-11-21T00:51:44;13.70;99.90
16243;DHT22;11719;51.052;6.982;2023-11-21T00:54:10;13.70;99.90
16243;DHT22;11719;51.052;6.982;2023-11-21T00:56:36;13.60;99.90
16243;DHT22;11719;51.052;6.982;2023-11-21T00:59:02;13.50;99.90
16243;DHT22;11719;51.052;6.982;2023-11-21T01:01:30;13.40;99.90
16243;DHT22;11719;51.052;6.982;2023-11-21T01:03:56;13.30;99.90
16243;DHT22;11719;51.052;6.982;2023-11-21T01:06:22;13.40;99.90
16243;DHT22;11719;51.052;6.982;2023-11-21T01:08:47;13.40;99.90
16243;DHT22;11719;51.052;6.982;2023-11-21T01:11:13;13.40;99.90
16243;DHT22;11719;51.052;6.982;2023-11-21T01:13:40;13.40;99.90
16243;DHT22;11719;51.052;6.982;2023-11-21T01:16:07;13.30;99.90
16243;DHT22;11719;51.052;6.982;2023-11-21T01:18:33;13.30;99.90
16243;DHT22;11719;51.052;6.982;2023-11-21T01:20:59;13.30;99.90
16243;DHT22;11719;51.052;6.982;2023-11-21T01:23:26;13.30;99.90
16243;DHT22;11719;51.052;6.982;2023-11-21T01:25:52;13.10;99.90
16243;DHT22;11719;51.052;6.982;2023-11-21T01:28:20;13.20;99.90
16243;DHT22;11719;51.052;6.982;2023-11-21T01:30:47;13.20;99.90
16243;DHT22;11719;51.052;6.982;2023-11-21T01:33:14;13.20;99.90
16243;DHT22;11719;51.052;6.982;2023-11-21T01:35:43;13.20;99.90
16243;DHT22;11719;51.052;6.982;2023-11-21T01:38:11;13.20;99.90
16243;DHT22;11719;51.052;6.982;2023-11-21T01:40:37;13.20;99.90
16243;DHT22;11719;51.052;6.982;2023-11-21T01:43:03;13.30;99.90
16243;DHT22;11719;51.052;6.982;2023-11-21T01:45:29;13.40;99.90
16243;DHT22;11719;51.052;6.982;2023-11-21T01:47:59;13.40;99.90
16243;DHT22;11719;51.052;6.982;2023-11-21T01:50:26;13.40;99.90
16243;DHT22;11719;51.052;6.982;2023-11-21T01:52:53;13.50;99.90
16243;DHT22;11719;51.052;6.982;2023-11-21T01:55:20;13.70;99.90
16243;DHT22;11719;51.052;6.982;2023-11-21T01:57:46;13.70;99.90
16243;DHT22;11719;51.052;6.982;2023-11-21T02:00:13;13.60;99.90
16243;DHT22;11719;51.052;6.982;2023-11-21T02:02:46;13.60;99.90
16243;DHT22;11719;51.052;6.982;2023-11-21T02:05:15;13.50;99.90
16243;DHT22;11719;51.052;6.982;2023-11-21T02:07:44;13.60;99.90
16243;DHT22;11719;51.052;6.982;2023-11-21T02:10:10;13.60;99.90
16243;DHT22;11719;51.052;6.982;2023-11-21T02:12:43;13.50;99.90
16243;DHT22;11719;51.052;6.982;2023-11-21T02:15:13;13.60;99.90
16243;DHT22;11719;51.052;6.982;2023-11-21T02:17:46;13.70;99.90
16243;DHT22;11719;51.052;6.982;2023-11-21T02:20:15;13.50;99.90
16243;DHT22;11719;51.052;6.982;2023-11-21T02:22:42;13.50;99.90
16243;DHT22;11719;51.052;6.982;2023-11-21T02:25:08;13.40;99.90
16243;DHT22;11719;51.052;6.982;2023-11-21T02:27:34;13.40;99.90
16243;DHT22;11719;51.052;6.982;2023-11-21T02:30:00;13.50;99.90
16243;DHT22;11719;51.052;6.982;2023-11-21T02:32:26;13.50;99.90
16243;DHT22;11719;51.052;6.982;2023-11-21T02:34:52;13.50;99.90
16243;DHT22;11719;51.052;6.982;2023-11-21T02:37:21;13.60;99.90
16243;DHT22;11719;51.052;6.982;2023-11-21T02:39:47;13.50;99.90
16243;DHT22;11719;51.052;6.982;2023-11-21T02:42:12;13.50;99.90
16243;DHT22;11719;51.052;6.982;2023-11-21T02:44:38;13.50;99.90
16243;DHT22;11719;51.052;6.982;2023-11-21T02:47:04;13.50;99.90
16243;DHT22;11719;51.052;6.982;2023-11-21T02:49:30;13.50;99.90
16243;DHT22;11719;51.052;6.982;2023-11-21T02:51:57;13.50;99.90
16243;DHT22;11719;51.052;6.982;2023-11-21T02:54:23;13.60;99.90
16243;DHT22;11719;51.052;6.982;2023-11-21T02:56:49;13.60;99.90
16243;DHT22;11719;51.052;6.982;2023-11-21T02:59:15;13.60;99.90
16243;DHT22;11719;51.052;6.982;2023-11-21T03:01:42;13.60;99.90
16243;DHT22;11719;51.052;6.982;2023-11-21T03:04:07;13.70;99.90
16243;DHT22;11719;51.052;6.982;2023-11-21T03:06:33;13.70;99.90
16243;DHT22;11719;51.052;6.982;2023-11-21T03:09:00;13.70;99.90
16243;DHT22;11719;51.052;6.982;2023-11-21T03:11:26;13.70;99.90
16243;DHT22;11719;51.052;6.982;2023-11-21T03:13:51;13.60;99.90
16243;DHT22;11719;51.052;6.982;2023-11-21T03:16:18;13.60;99.90
16243;DHT22;11719;51.052;6.982;2023-11-21T03:18:44;13.60;99.90
16243;DHT22;11719;51.052;6.982;2023-11-21T03:21:10;13.50;99.90
16243;DHT22;11719;51.052;6.982;2023-11-21T03:23:37;13.60;99.90
16243;DHT22;11719;51.052;6.982;2023-11-21T03:26:03;13.50;99.90
16243;DHT22;11719;51.052;6.982;2023-11-21T03:28:29;13.50;99.90
16243;DHT22;11719;51.052;6.982;2023-11-21T03:30:55;13.50;99.90
16243;DHT22;11719;51.052;6.982;2023-11-21T03:33:22;13.60;99.90
16243;DHT22;11719;51.052;6.982;2023-11-21T03:35:48;13.60;99.90
16243;DHT22;11719;51.052;6.982;2023-11-21T03:38:14;13.60;99.90
16243;DHT22;11719;51.052;6.982;2023-11-21T03:40:41;13.60;99.90
16243;DHT22;11719;51.052;6.982;2023-11-21T03:43:07;13.60;99.90
16243;DHT22;11719;51.052;6.982;2023-11-21T03:45:33;13.70;99.90
16243;DHT22;11719;51.052;6.982;2023-11-21T03:47:59;13.70;99.90
16243;DHT22;11719;51.052;6.982;2023-11-21T03:50:29;13.70;99.90
16243;DHT22;11719;51.052;6.982;2023-11-21T03:52:55;13.80;99.90
16243;DHT22;11719;51.052;6.982;2023-11-21T03:55:21;13.80;99.90
16243;DHT22;11719;51.052;6.982;2023-11-21T03:57:49;13.80;99.90
16243;DHT22;11719;51.052;6.982;2023-11-21T04:00:15;13.70;99.90
16243;DHT22;11719;51.052;6.982;2023-11-21T04:02:41;13.70;99.90
16243;DHT22;11719;51.052;6.982;2023-11-21T04:05:07;13.60;99.90
16243;DHT22;11719;51.052;6.982;2023-11-21T04:07:33;13.60;99.90
16243;DHT22;11719;51.052;6.982;2023-11-21T04:09:59;13.60;99.90
16243;DHT22;11719;51.052;6.982;2023-11-21T04:12:25;13.50;99.90
16243;DHT22;11719;51.052;6.982;2023-11-21T04:14:51;13.50;99.90
16243;DHT22;11719;51.052;6.982;2023-11-21T04:17:20;13.50;99.90
16243;DHT22;11719;51.052;6.982;2023-11-21T04:19:46;13.60;99.90
16243;DHT22;11719;51.052;6.982;2023-11-21T04:22:12;13.60;99.90
16243;DHT22;11719;51.052;6.982;2023-11-21T04:24:38;13.60;99.90
16243;DHT22;11719;51.052;6.982;2023-11-21T04:27:04;13.60;99.90
16243;DHT22;11719;51.052;6.982;2023-11-21T04:29:30;13.60;99.90
16243;DHT22;11719;51.052;6.982;2023-11-21T04:31:56;13.70;99.90
16243;DHT22;11719;51.052;6.982;2023-11-21T04:34:21;13.70;99.90
16243;DHT22;11719;51.052;6.982;2023-11-21T04:36:49;13.60;99.90
16243;DHT22;11719;51.052;6.982;2023-11-21T04:39:15;13.60;99.90
16243;DHT22;11719;51.052;6.982;2023-11-21T04:41:41;13.60;99.90
16243;DHT22;11719;51.052;6.982;2023-11-21T04:44:07;13.80;99.90
16243;DHT22;11719;51.052;6.982;2023-11-21T04:46:33;13.90;99.90
16243;DHT22;11719;51.052;6.982;2023-11-21T04:48:59;14.10;99.90
16243;DHT22;11719;51.052;6.982;2023-11-21T04:51:25;14.10;99.90
16243;DHT22;11719;51.052;6.982;2023-11-21T04:53:51;14.00;99.90
16243;DHT22;11719;51.052;6.982;2023-11-21T04:56:16;13.90;99.90
16243;DHT22;11719;51.052;6.982;2023-11-21T04:58:42;13.80;99.90
16243;DHT22;11719;51.052;6.982;2023-11-21T05:01:08;13.80;99.90
16243;DHT22;11719;51.052;6.982;2023-11-21T05:03:34;13.80;99.90
16243;DHT22;11719;51.052;6.982;2023-11-21T05:06:00;13.80;99.90
16243;DHT22;11719;51.052;6.982;2023-11-21T05:08:26;13.80;99.90
16243;DHT22;11719;51.052;6.982;2023-11-21T05:10:52;13.70;99.90
16243;DHT22;11719;51.052;6.982;2023-11-21T05:13:19;13.70;99.90
16243;DHT22;11719;51.052;6.982;2023-11-21T05:15:46;13.90;99.90
16243;DHT22;11719;51.052;6.982;2023-11-21T05:18:12;13.80;99.90
16243;DHT22;11719;51.052;6.982;2023-11-21T05:20:39;13.70;99.90
16243;DHT22;11719;51.052;6.982;2023-11-21T05:23:06;13.70;99.90
16243;DHT22;11719;51.052;6.982;2023-11-21T05:25:33;13.60;99.90
16243;DHT22;11719;51.052;6.982;2023-11-21T05:27:59;13.60;99.90
16243;DHT22;11719;51.052;6.982;2023-11-21T05:30:27;13.60;99.90
16243;DHT22;11719;51.052;6.982;2023-11-21T05:32:53;13.80;99.90
16243;DHT22;11719;51.052;6.982;2023-11-21T05:35:19;13.70;99.90
16243;DHT22;11719;51.052;6.982;2023-11-21T05:37:45;13.70;99.90
16243;DHT22;11719;51.052;6.982;2023-11-21T05:40:12;13.60;99.90
16243;DHT22;11719;51.052;6.982;2023-11-21T05:42:39;13.60;99.90
16243;DHT22;11719;51.052;6.982;2023-11-21T05:45:07;13.60;99.90
16243;DHT22;11719;51.052;6.982;2023-11-21T05:47:43;13.70;99.90
16243;DHT22;11719;51.052;6.982;2023-11-21T05:50:12;13.70;99.90
16243;DHT22;11719;51.052;6.982;2023-11-21T05:52:43;13.70;99.90
16243;DHT22;11719;51.052;6.982;2023-11-21T05:55:11;13.70;99.90
16243;DHT22;11719;51.052;6.982;2023-11-21T05:57:39;13.70;99.90
16243;DHT22;11719;51.052;6.982;2023-11-21T06:00:06;13.70;99.90
16243;DHT22;11719;51.052;6.982;2023-11-21T06:02:39;13.60;99.90
16243;DHT22;11719;51.052;6.982;2023-11-21T06:05:09;13.50;99.90
16243;DHT22;11719;51.052;6.982;2023-11-21T06:07:36;13.50;99.90
16243;DHT22;11719;51.052;6.982;2023-11-21T06:10:07;13.60;99.90
16243;DHT22;11719;51.052;6.982;2023-11-21T06:12:37;13.70;99.90
16243;DHT22;11719;51.052;6.982;2023-11-21T06:15:04;13.60;99.90
16243;DHT22;11719;51.052;6.982;2023-11-21T06:17:32;13.50;99.90
16243;DHT22;11719;51.052;6.982;2023-11-21T06:20:02;13.40;99.90
16243;DHT22;11719;51.052;6.982;2023-11-21T06:22:38;13.30;99.90
16243;DHT22;11719;51.052;6.982;2023-11-21T06:25:05;13.30;99.90
16243;DHT22;11719;51.052;6.982;2023-11-21T06:27:51;13.30;99.90
16243;DHT22;11719;51.052;6.982;2023-11-21T06:30:19;13.30;99.90
16243;DHT22;11719;51.052;6.982;2023-11-21T06:32:45;13.30;99.90
16243;DHT22;11719;51.052;6.982;2023-11-21T06:35:11;13.30;99.90
16243;DHT22;11719;51.052;6.982;2023-11-21T06:37:38;13.40;99.90
16243;DHT22;11719;51.052;6.982;2023-11-21T06:40:04;13.50;99.90
16243;DHT22;11719;51.052;6.982;2023-11-21T06:42:32;13.40;99.90
16243;DHT22;11719;51.052;6.982;2023-11-21T06:44:59;13.30;99.90
16243;DHT22;11719;51.052;6.982;2023-11-21T06:47:27;13.20;99.90
16243;DHT22;11719;51.052;6.982;2023-11-21T06:49:55;13.40;99.90
16243;DHT22;11719;51.052;6.982;2023-11-21T06:52:21;13.50;99.90
16243;DHT22;11719;51.052;6.982;2023-11-21T06:54:48;13.60;99.90
16243;DHT22;11719;51.052;6.982;2023-11-21T06:57:17;13.50;99.90
16243;DHT22;11719;51.052;6.982;2023-11-21T06:59:43;13.50;99.90
16243;DHT22;11719;51.052;6.982;2023-11-21T07:02:09;13.50;99.90
16243;DHT22;11719;51.052;6.982;2023-11-21T07:04:35;13.50;99.90
16243;DHT22;11719;51.052;6.982;2023-11-21T07:07:05;13.50;99.90
16243;DHT22;11719;51.052;6.982;2023-11-21T07:09:32;13.50;99.90
16243;DHT22;11719;51.052;6.982;2023-11-21T07:11:58;13.60;99.90
16243;DHT22;11719;51.052;6.982;2023-11-21T07:14:25;13.60;99.90
16243;DHT22;11719;51.052;6.982;2023-11-21T07:16:50;13.50;99.90
16243;DHT22;11719;51.052;6.982;2023-11-21T07:19:18;13.60;99.90
16243;DHT22;11719;51.052;6.982;2023-11-21T07:21:45;13.60;99.90
16243;DHT22;11719;51.052;6.982;2023-11-21T07:24:11;13.60;99.90
16243;DHT22;11719;51.052;6.982;2023-11-21T07:26:36;13.60;99.90
16243;DHT22;11719;51.052;6.982;2023-11-21T07:29:03;13.60;99.90
16243;DHT22;11719;51.052;6.982;2023-11-21T07:31:30;13.60;99.90
16243;DHT22;11719;51.052;6.982;2023-11-21T07:34:00;13.70;99.90
16243;DHT22;11719;51.052;6.982;2023-11-21T07:36:26;13.70;99.90
16243;DHT22;11719;51.052;6.982;2023-11-21T07:38:54;13.70;99.90
16243;DHT22;11719;51.052;6.982;2023-11-21T07:41:20;13.80;99.90
16243;DHT22;11719;51.052;6.982;2023-11-21T07:43:46;13.80;99.90
16243;DHT22;11719;51.052;6.982;2023-11-21T07:46:12;13.80;99.90
16243;DHT22;11719;51.052;6.982;2023-11-21T07:48:40;13.80;99.90
16243;DHT22;11719;51.052;6.982;2023-11-21T07:51:07;13.80;99.90
16243;DHT22;11719;51.052;6.982;2023-11-21T07:53:35;13.80;99.90
16243;DHT22;11719;51.052;6.982;2023-11-21T07:56:05;13.80;99.90
16243;DHT22;11719;51.052;6.982;2023-11-21T07:58:33;13.90;99.90
16243;DHT22;11719;51.052;6.982;2023-11-21T08:01:02;13.90;99.90
16243;DHT22;11719;51.052;6.982;2023-11-21T08:03:29;13.90;99.90
16243;DHT22;11719;51.052;6.982;2023-11-21T08:05:56;14.00;99.90
16243;DHT22;11719;51.052;6.982;2023-11-21T08:08:23;13.90;99.90
16243;DHT22;11719;51.052;6.982;2023-11-21T08:10:50;13.90;99.90
16243;DHT22;11719;51.052;6.982;2023-11-21T08:13:26;14.00;99.90
16243;DHT22;11719;51.052;6.982;2023-11-21T08:15:56;14.00;99.90
16243;DHT22;11719;51.052;6.982;2023-11-21T08:18:30;14.00;99.90
16243;DHT22;11719;51.052;6.982;2023-11-21T08:20:56;13.90;99.90
16243;DHT22;11719;51.052;6.982;2023-11-21T08:23:22;13.90;99.90
16243;DHT22;11719;51.052;6.982;2023-11-21T08:25:51;13.90;99.90
16243;DHT22;11719;51.052;6.982;2023-11-21T08:28:18;13.90;99.90
16243;DHT22;11719;51.052;6.982;2023-11-21T08:30:44;13.90;99.90
16243;DHT22;11719;51.052;6.982;2023-11-21T08:33:10;13.90;99.90
16243;DHT22;11719;51.052;6.982;2023-11-21T08:35:39;14.00;99.90
16243;DHT22;11719;51.052;6.982;2023-11-21T08:38:05;14.00;99.90
16243;DHT22;11719;51.052;6.982;2023-11-21T08:40:31;13.90;99.90
16243;DHT22;11719;51.052;6.982;2023-11-21T08:42:57;13.90;99.90
16243;DHT22;11719;51.052;6.982;2023-11-21T08:45:25;13.90;99.90
16243;DHT22;11719;51.052;6.982;2023-11-21T08:47:51;13.90;99.90
16243;DHT22;11719;51.052;6.982;2023-11-21T08:50:18;14.00;99.90
16243;DHT22;11719;51.052;6.982;2023-11-21T08:52:45;13.90;99.90
16243;DHT22;11719;51.052;6.982;2023-11-21T08:55:12;13.70;99.90
16243;DHT22;11719;51.052;6.982;2023-11-21T08:57:38;13.60;99.90
16243;DHT22;11719;51.052;6.982;2023-11-21T09:00:09;13.70;99.90
16243;DHT22;11719;51.052;6.982;2023-11-21T09:02:41;14.10;99.90
16243;DHT22;11719;51.052;6.982;2023-11-21T09:05:11;14.40;99.90
16243;DHT22;11719;51.052;6.982;2023-11-21T09:07:38;14.60;99.90
16243;DHT22;11719;51.052;6.982;2023-11-21T09:10:06;14.80;99.90
16243;DHT22;11719;51.052;6.982;2023-11-21T09:17:44;15.30;99.90
16243;DHT22;11719;51.052;6.982;2023-11-21T09:20:15;15.30;99.90
16243;DHT22;11719;51.052;6.982;2023-11-21T09:22:41;14.80;99.90
16243;DHT22;11719;51.052;6.982;2023-11-21T09:25:07;14.60;99.90
16243;DHT22;11719;51.052;6.982;2023-11-21T09:27:35;14.60;99.90
16243;DHT22;11719;51.052;6.982;2023-11-21T09:30:04;14.40;99.90
16243;DHT22;11719;51.052;6.982;2023-11-21T09:32:31;14.30;99.90
16243;DHT22;11719;51.052;6.982;2023-11-21T09:35:02;14.20;99.90
16243;DHT22;11719;51.052;6.982;2023-11-21T09:37:30;14.10;99.90
16243;DHT22;11719;51.052;6.982;2023-11-21T09:39:57;14.10;99.90
16243;DHT22;11719;51.052;6.982;2023-11-21T09:42:39;14.00;99.90
16243;DHT22;11719;51.052;6.982;2023-11-21T09:45:27;13.90;99.90
16243;DHT22;11719;51.052;6.982;2023-11-21T09:47:55;13.90;99.90
16243;DHT22;11719;51.052;6.982;2023-11-21T09:50:22;13.80;99.90
16243;DHT22;11719;51.052;6.982;2023-11-21T09:55:51;13.90;99.90
16243;DHT22;11719;51.052;6.982;2023-11-21T09:58:19;13.90;99.90
16243;DHT22;11719;51.052;6.982;2023-11-21T10:00:53;13.90;99.90
16243;DHT22;11719;51.052;6.982;2023-11-21T10:03:22;13.80;99.90
16243;DHT22;11719;51.052;6.982;2023-11-21T10:05:53;13.80;99.90
16243;DHT22;11719;51.052;6.982;2023-11-21T10:08:25;13.70;99.90
16243;DHT22;11719;51.052;6.982;2023-11-21T10:10:55;13.60;99.90
16243;DHT22;11719;51.052;6.982;2023-11-21T10:13:21;13.70;99.90
16243;DHT22;11719;51.052;6.982;2023-11-21T10:15:50;13.70;99.90
16243;DHT22;11719;51.052;6.982;2023-11-21T10:18:17;13.70;99.90
16243;DHT22;11719;51.052;6.982;2023-11-21T10:20:44;13.70;99.90
16243;DHT22;11719;51.052;6.982;2023-11-21T10:23:19;13.70;99.90
16243;DHT22;11719;51.052;6.982;2023-11-21T10:25:46;13.70;99.90
16243;DHT22;11719;51.052;6.982;2023-11-21T10:28:12;13.70;99.90
16243;DHT22;11719;51.052;6.982;2023-11-21T10:30:38;13.50;99.90
16243;DHT22;11719;51.052;6.982;2023-11-21T10:33:06;13.50;99.90
16243;DHT22;11719;51.052;6.982;2023-11-21T10:35:47;13.60;99.90
16243;DHT22;11719;51.052;6.982;2023-11-21T10:38:20;13.70;99.90
16243;DHT22;11719;51.052;6.982;2023-11-21T10:40:49;13.80;99.90
16243;DHT22;11719;51.052;6.982;2023-11-21T10:43:16;13.80;99.90
16243;DHT22;11719;51.052;6.982;2023-11-21T10:45:43;13.70;99.90
16243;DHT22;11719;51.052;6.982;2023-11-21T10:48:10;13.80;99.90
16243;DHT22;11719;51.052;6.982;2023-11-21T10:50:38;13.90;99.90
16243;DHT22;11719;51.052;6.982;2023-11-21T10:53:05;13.90;99.90
16243;DHT22;11719;51.052;6.982;2023-11-21T10:55:34;14.00;99.90
16243;DHT22;11719;51.052;6.982;2023-11-21T10:58:02;13.90;99.90
16243;DHT22;11719;51.052;6.982;2023-11-21T11:00:31;13.90;99.90
16243;DHT22;11719;51.052;6.982;2023-11-21T11:02:58;13.80;99.90
16243;DHT22;11719;51.052;6.982;2023-11-21T11:05:26;13.80;99.90
16243;DHT22;11719;51.052;6.982;2023-11-21T11:08:08;13.80;99.90
16243;DHT22;11719;51.052;6.982;2023-11-21T11:10:37;13.80;99.90
16243;DHT22;11719;51.052;6.982;2023-11-21T11:13:04;13.80;99.90
16243;DHT22;11719;51.052;6.982;2023-11-21T11:15:32;13.70;99.90
16243;DHT22;11719;51.052;6.982;2023-11-21T11:17:59;13.70;99.90
16243;DHT22;11719;51.052;6.982;2023-11-21T11:20:35;13.70;99.90
16243;DHT22;11719;51.052;6.982;2023-11-21T11:23:42;13.80;99.90
16243;DHT22;11719;51.052;6.982;2023-11-21T11:26:32;13.80;99.90
16243;DHT22;11719;51.052;6.982;2023-11-21T11:38:04;13.80;99.90
16243;DHT22;11719;51.052;6.982;2023-11-21T11:40:40;14.00;99.90
16243;DHT22;11719;51.052;6.982;2023-11-21T11:43:07;14.00;99.90
16243;DHT22;11719;51.052;6.982;2023-11-21T11:45:34;14.00;99.90
16243;DHT22;11719;51.052;6.982;2023-11-21T11:48:07;14.00;99.90
16243;DHT22;11719;51.052;6.982;2023-11-21T11:50:33;14.00;99.90
16243;DHT22;11719;51.052;6.982;2023-11-21T11:53:14;14.00;99.90
16243;DHT22;11719;51.052;6.982;2023-11-21T11:55:41;14.20;99.90
16243;DHT22;11719;51.052;6.982;2023-11-21T11:58:07;14.30;99.90
16243;DHT22;11719;51.052;6.982;2023-11-21T12:00:34;14.30;99.90
16243;DHT22;11719;51.052;6.982;2023-11-21T12:03:05;14.30;99.90
16243;DHT22;11719;51.052;6.982;2023-11-21T12:05:34;14.30;99.90
16243;DHT22;11719;51.052;6.982;2023-11-21T12:08:09;14.30;99.90
16243;DHT22;11719;51.052;6.982;2023-11-21T12:10:38;14.30;99.90
16243;DHT22;11719;51.052;6.982;2023-11-21T12:13:09;14.20;99.90
16243;DHT22;11719;51.052;6.982;2023-11-21T12:15:37;14.00;99.90
16243;DHT22;11719;51.052;6.982;2023-11-21T12:18:04;14.00;99.90
16243;DHT22;11719;51.052;6.982;2023-11-21T12:20:31;14.00;99.90
16243;DHT22;11719;51.052;6.982;2023-11-21T12:23:01;14.10;99.90
16243;DHT22;11719;51.052;6.982;2023-11-21T12:25:31;14.10;99.90
16243;DHT22;11719;51.052;6.982;2023-11-21T12:27:59;14.00;99.90
16243;DHT22;11719;51.052;6.982;2023-11-21T12:30:28;14.10;99.90
16243;DHT22;11719;51.052;6.982;2023-11-21T12:32:57;13.90;99.90
16243;DHT22;11719;51.052;6.982;2023-11-21T12:35:25;14.00;99.90
16243;DHT22;11719;51.052;6.982;2023-11-21T12:37:53;14.00;99.90
16243;DHT22;11719;51.052;6.982;2023-11-21T12:40:20;14.00;99.90
16243;DHT22;11719;51.052;6.982;2023-11-21T12:42:51;14.00;99.90
16243;DHT22;11719;51.052;6.982;2023-11-21T12:45:22;13.90;99.90
16243;DHT22;11719;51.052;6.982;2023-11-21T12:47:53;13.90;99.90
16243;DHT22;11719;51.052;6.982;2023-11-21T12:50:24;13.90;99.90
16243;DHT22;11719;51.052;6.982;2023-11-21T12:53:02;13.90;99.90
16243;DHT22;11719;51.052;6.982;2023-11-21T12:55:34;13.90;99.90
16243;DHT22;11719;51.052;6.982;2023-11-21T12:58:08;13.90;99.90
16243;DHT22;11719;51.052;6.982;2023-11-21T13:00:40;13.90;99.90
16243;DHT22;11719;51.052;6.982;2023-11-21T13:03:13;14.00;99.90
16243;DHT22;11719;51.052;6.982;2023-11-21T13:05:48;14.00;99.90
16243;DHT22;11719;51.052;6.982;2023-11-21T13:08:17;13.90;99.90
16243;DHT22;11719;51.052;6.982;2023-11-21T13:10:53;13.90;99.90
16243;DHT22;11719;51.052;6.982;2023-11-21T13:13:20;13.80;99.90
16243;DHT22;11719;51.052;6.982;2023-11-21T13:15:54;13.90;99.90
16243;DHT22;11719;51.052;6.982;2023-11-21T13:18:27;13.90;99.90
16243;DHT22;11719;51.052;6.982;2023-11-21T13:21:06;13.90;99.90
16243;DHT22;11719;51.052;6.982;2023-11-21T13:23:38;14.00;99.90
16243;DHT22;11719;51.052;6.982;2023-11-21T13:26:04;14.10;99.90
16243;DHT22;11719;51.052;6.982;2023-11-21T13:28:31;14.20;99.90
16243;DHT22;11719;51.052;6.982;2023-11-21T13:30:59;14.20;99.90
16243;DHT22;11719;51.052;6.982;2023-11-21T13:33:35;14.30;99.90
16243;DHT22;11719;51.052;6.982;2023-11-21T13:36:06;14.40;99.90
16243;DHT22;11719;51.052;6.982;2023-11-21T13:38:40;14.40;99.90
16243;DHT22;11719;51.052;6.982;2023-11-21T13:41:11;14.50;99.90
16243;DHT22;11719;51.052;6.982;2023-11-21T13:43:42;14.40;99.90
16243;DHT22;11719;51.052;6.982;2023-11-21T13:46:13;14.40;99.90
16243;DHT22;11719;51.052;6.982;2023-11-21T13:48:44;14.40;99.90
16243;DHT22;11719;51.052;6.982;2023-11-21T13:51:16;14.40;99.90
16243;DHT22;11719;51.052;6.982;2023-11-21T13:53:48;14.40;99.90
16243;DHT22;11719;51.052;6.982;2023-11-21T13:56:19;14.40;99.90
16243;DHT22;11719;51.052;6.982;2023-11-21T13:58:49;14.50;99.90
16243;DHT22;11719;51.052;6.982;2023-11-21T14:01:20;14.60;99.90
16243;DHT22;11719;51.052;6.982;2023-11-21T14:03:59;14.60;99.90
16243;DHT22;11719;51.052;6.982;2023-11-21T14:06:35;14.60;99.90
16243;DHT22;11719;51.052;6.982;2023-11-21T14:09:12;14.50;99.90
16243;DHT22;11719;51.052;6.982;2023-11-21T14:11:43;14.50;99.90
16243;DHT22;11719;51.052;6.982;2023-11-21T14:14:10;14.50;99.90
16243;DHT22;11719;51.052;6.982;2023-11-21T14:16:36;14.50;99.90
16243;DHT22;11719;51.052;6.982;2023-11-21T14:19:02;14.40;99.90
16243;DHT22;11719;51.052;6.982;2023-11-21T14:21:41;14.40;99.90
16243;DHT22;11719;51.052;6.982;2023-11-21T14:24:11;14.50;99.90
16243;DHT22;11719;51.052;6.982;2023-11-21T14:26:44;14.60;99.90
16243;DHT22;11719;51.052;6.982;2023-11-21T14:29:12;14.60;99.90
16243;DHT22;11719;51.052;6.982;2023-11-21T14:31:41;14.70;99.90
16243;DHT22;11719;51.052;6.982;2023-11-21T14:34:08;14.70;99.90
16243;DHT22;11719;51.052;6.982;2023-11-21T14:36:35;14.60;99.90
16243;DHT22;11719;51.052;6.982;2023-11-21T14:39:03;14.70;99.90
16243;DHT22;11719;51.052;6.982;2023-11-21T14:41:32;14.70;99.90
16243;DHT22;11719;51.052;6.982;2023-11-21T14:44:01;14.70;99.90
16243;DHT22;11719;51.052;6.982;2023-11-21T14:46:29;14.80;99.90
16243;DHT22;11719;51.052;6.982;2023-11-21T14:48:56;14.80;99.90
16243;DHT22;11719;51.052;6.982;2023-11-21T14:51:38;14.80;99.90
16243;DHT22;11719;51.052;6.982;2023-11-21T14:54:24;14.90;99.90
16243;DHT22;11719;51.052;6.982;2023-11-21T14:57:12;15.00;99.90
16243;DHT22;11719;51.052;6.982;2023-11-21T14:59:44;14.90;99.90
16243;DHT22;11719;51.052;6.982;2023-11-21T15:02:18;14.80;99.90
16243;DHT22;11719;51.052;6.982;2023-11-21T15:04:48;14.70;99.90
16243;DHT22;11719;51.052;6.982;2023-11-21T15:07:18;14.70;99.90
16243;DHT22;11719;51.052;6.982;2023-11-21T15:09:44;14.70;99.90
16243;DHT22;11719;51.052;6.982;2023-11-21T15:12:11;14.60;99.90
16243;DHT22;11719;51.052;6.982;2023-11-21T15:17:14;14.60;99.90
16243;DHT22;11719;51.052;6.982;2023-11-21T15:19:50;14.70;99.90
16243;DHT22;11719;51.052;6.982;2023-11-21T15:22:16;14.80;99.90
16243;DHT22;11719;51.052;6.982;2023-11-21T15:24:43;14.80;99.90
16243;DHT22;11719;51.052;6.982;2023-11-21T15:27:12;14.80;99.90
16243;DHT22;11719;51.052;6.982;2023-11-21T15:29:39;14.80;99.90
16243;DHT22;11719;51.052;6.982;2023-11-21T15:32:06;15.00;99.90
16243;DHT22;11719;51.052;6.982;2023-11-21T15:34:33;15.00;99.90
16243;DHT22;11719;51.052;6.982;2023-11-21T15:37:03;15.00;99.90
16243;DHT22;11719;51.052;6.982;2023-11-21T15:39:30;15.00;99.90
16243;DHT22;11719;51.052;6.982;2023-11-21T15:41:59;15.00;99.90
16243;DHT22;11719;51.052;6.982;2023-11-21T15:44:31;15.00;99.90
16243;DHT22;11719;51.052;6.982;2023-11-21T15:46:59;15.00;99.90
16243;DHT22;11719;51.052;6.982;2023-11-21T15:49:25;14.90;99.90
16243;DHT22;11719;51.052;6.982;2023-11-21T15:51:54;15.00;99.90
16243;DHT22;11719;51.052;6.982;2023-11-21T15:54:23;14.90;99.90
16243;DHT22;11719;51.052;6.982;2023-11-21T15:56:51;15.30;99.90